Canyonlands Natl Park, Utah
Current Conditions -  °F | °C
As of 7:35 AM on Friday 31 Oct 2014 (Local Time) from KHVE Reporting Station
Clear Clear  
Wind Chill: 32°   Ceiling: Unl
Heat Index: 32°   Visibility: 10mi
Dew Point: 18°   Wind: 0mph
Humidity: 55%   Direction: NA
Pressure: 30.19"   Gusts: NA
Location:  38.17°N, 110°W
Report Text: KHVE 311335Z AUTO 00000KT 10SM CLR 00/M08 A3019 RMK AO2
Loading
Personal Weather Stations






























Interactive Weather Map
Tropical Storm Tracking
New forecast layout! Learn more

10-Day Weather Forecast

Advertisements
Track Severe Weather on mobile